Flight Track Log - Related Links

Times and Time Zones

All times are in EDT time to prevent confusion due to time zone crossing. See the N566UA flight status page for this flight to view local times or setup timezone preferences in your user account.

Time Position Orientation Groundspeed Altitude Reporting Facility
EDT Latitude Longitude Course Direction KTS MPH feet Rate Location/Type
Mon 03:08:24 PM 36.0761 -115.1683 94° East 145 167 3,200  Level Los Angeles Center
Mon 03:09:37 PM 36.0742 -115.2592 269° West 227 261 5,700 2,187 Climbing Los Angeles Center
Mon 03:10:11 PM 36.0942 -115.2889 310° West 243 280 7,100 2,313 Climbing Los Angeles Center
Mon 03:11:00 PM 36.1834 -115.0238 90° East  Level FlightAware Approximate
Mon 03:11:13 PM 36.1622 -115.2775 North 273 314 9,400  Level Los Angeles Center
Mon 03:12:00 PM 36.1876 -114.8533 80° East  Level FlightAware Approximate
Mon 03:12:15 PM 36.1958 -115.1828 66° East 301 346 10,600  Level Los Angeles Center
Mon 03:13:00 PM 36.1952 -114.6839 94° East  Level FlightAware Approximate
Mon 03:13:17 PM 36.1983 -115.0561 89° East 360 414 12,500  Level Los Angeles Center
Mon 03:14:19 PM 36.1992 -114.8919 90° East 392 451 14,600 1,742 Climbing Los Angeles Center
Mon 03:15:21 PM 36.2000 -114.7403 90° East 427 491 16,100 1,548 Climbing Los Angeles Center
Mon 03:16:23 PM 36.1978 -114.5794 91° East 455 524 17,800 1,839 Climbing Los Angeles Center
Mon 03:17:25 PM 36.1950 -114.4128 91° East 477 549 19,900 1,839 Climbing Los Angeles Center
Mon 03:18:27 PM 36.1942 -114.2400 90° East 494 568 21,600 1,500 Climbing Los Angeles Center
Mon 03:19:29 PM 36.2125 -114.0639 83° East 511 588 23,000 1,548 Climbing Los Angeles Center
Mon 03:20:31 PM 36.2403 -113.8472 81° East 528 608 24,800 1,452 Climbing Los Angeles Center
Mon 03:21:33 PM 36.2617 -113.6619 82° East 539 620 26,000 1,258 Climbing Los Angeles Center
Mon 03:22:35 PM 36.2831 -113.4731 82° East 551 634 27,400 1,403 Climbing Los Angeles Center
Mon 03:23:37 PM 36.3056 -113.2831 82° East 558 642 28,900 1,258 Climbing Los Angeles Center
Mon 03:24:39 PM 36.3561 -113.0992 71° East 550 633 30,000 968 Climbing Los Angeles Center
Mon 03:25:41 PM 36.4225 -112.9256 65° Northeast 558 642 30,900 1,008 Climbing Los Angeles Center
Mon 03:26:44 PM 36.4864 -112.7494 66° East 562 647 32,100 1,344 Climbing Los Angeles Center
Mon 03:27:46 PM 36.5633 -112.5422 65° Northeast 554 638 33,700 1,210 Climbing Los Angeles Center
Mon 03:28:48 PM 36.6250 -112.3700 66° East 550 633 34,600 629 Climbing Los Angeles Center
Mon 03:29:50 PM 36.6881 -112.1975 65° Northeast 550 633 35,000 194 Climbing Los Angeles Center
Mon 03:30:52 PM 36.7514 -112.0250 65° Northeast 550 633 35,000  Level Los Angeles Center
Mon 03:31:19 PM 36.7881 -111.9236 66° East 550 633 35,000  Level Denver Center
Mon 03:32:20 PM 36.8481 -111.7544 66° East 541 623 35,000  Level Denver Center
Mon 03:33:22 PM 36.9108 -111.5800 66° East 548 631 35,000  Level Denver Center
Mon 03:34:24 PM 36.9728 -111.4036 66° East 554 638 35,000  Level Denver Center
Mon 03:35:25 PM 37.0342 -111.2275 66° East 556 640 35,000  Level Denver Center
Mon 03:36:27 PM 37.0961 -111.0492 66° East 560 644 35,000  Level Denver Center
Mon 03:37:28 PM 37.1444 -110.9075 67° East 558 642 35,000  Level Denver Center
Mon 03:38:30 PM 37.2325 -110.6572 66° East 563 648 35,000  Level Denver Center
Mon 03:39:32 PM 37.2947 -110.4792 66° East 560 644 35,000  Level Denver Center
Mon 03:40:34 PM 37.3558 -110.2986 67° East 562 647 35,000  Level Denver Center
Mon 03:41:36 PM 37.4150 -110.1225 67° East 560 644 35,000  Level Denver Center
Mon 03:43:39 PM 37.5419 -109.7428 67° East 565 650 35,000  Level Denver Center
Mon 03:44:41 PM 37.6103 -109.5386 67° East 564 649 35,000  Level Denver Center
Mon 03:45:42 PM 37.6681 -109.3642 67° East 565 650 35,000  Level Denver Center
Mon 03:46:44 PM 37.7256 -109.1883 67° East 565 650 35,000  Level Denver Center
Mon 03:47:46 PM 37.7931 -108.9825 67° East 567 652 35,000  Level Denver Center
Mon 03:48:47 PM 37.8553 -108.8086 66° East 567 652 35,000  Level Denver Center
Mon 03:49:49 PM 37.9303 -108.6081 65° Northeast 564 649 35,000  Level Denver Center
Mon 03:50:50 PM 37.9842 -108.4619 65° Northeast 567 652 35,000  Level Denver Center
Mon 03:51:52 PM 38.0608 -108.2597 64° Northeast 571 657 35,000  Level Denver Center
Mon 03:52:54 PM 38.1361 -108.0508 65° Northeast 577 664 35,000  Level Denver Center
Mon 03:53:56 PM 38.2008 -107.8758 65° Northeast 575 662 35,000  Level Denver Center
Mon 03:54:58 PM 38.2753 -107.6725 65° Northeast 572 658 35,000  Level Denver Center
Mon 03:55:59 PM 38.3394 -107.4939 65° Northeast 577 664 35,000  Level Denver Center
Mon 03:57:01 PM 38.4142 -107.2853 65° Northeast 579 666 35,000  Level Denver Center
Mon 03:58:03 PM 38.4750 -107.1139 66° East 578 665 35,000  Level Denver Center
Mon 03:59:04 PM 38.5408 -106.9275 66° East 577 664 35,000  Level Denver Center
Mon 04:00:06 PM 38.6072 -106.7386 66° East 583 671 35,000  Level Denver Center
Mon 04:01:08 PM 38.6864 -106.5142 66° East 581 669 35,000  Level Denver Center
Mon 04:02:09 PM 38.7525 -106.3247 66° East 585 673 35,000  Level Denver Center
Mon 04:03:11 PM 38.8228 -106.1206 66° East 585 673 35,000  Level Denver Center
Mon 04:04:13 PM 38.8883 -105.9275 66° East 585 673 35,000  Level Denver Center
Mon 04:05:14 PM 38.9425 -105.7678 66° East 583 671 35,000  Level Denver Center
Mon 04:06:16 PM 39.0189 -105.5431 66° East 582 670 35,000  Level Denver Center
Mon 04:07:18 PM 39.0833 -105.3506 67° East 583 671 35,000  Level Denver Center
Mon 04:08:19 PM 39.1478 -105.1558 67° East 588 677 35,000  Level Denver Center
Mon 04:09:33 PM 39.2139 -104.9617 66° East 590 679 35,000  Level Denver Center
Mon 04:10:35 PM 39.2986 -104.7039 67° East 584 672 35,000  Level Denver Center
Mon 04:11:37 PM 39.3614 -104.5108 67° East 586 674 35,000  Level Denver Center
Mon 04:12:38 PM 39.4242 -104.3181 67° East 584 672 35,000  Level Denver Center
Mon 04:13:40 PM 39.4864 -104.1219 68° East 588 677 35,000  Level Denver Center
Mon 04:14:42 PM 39.5475 -103.9278 68° East 585 673 35,000  Level Denver Center
Mon 04:15:43 PM 39.6097 -103.7331 67° East 583 671 35,000  Level Denver Center
Mon 04:16:45 PM 39.6717 -103.5392 67° East 577 664 35,000  Level Denver Center
Mon 04:17:47 PM 39.7431 -103.3119 68° East 578 665 35,000  Level Denver Center
Mon 04:18:48 PM 39.8039 -103.1183 68° East 574 661 35,000  Level Denver Center
Mon 04:19:50 PM 39.8625 -102.9278 68° East 563 648 35,000  Level Denver Center
Mon 04:20:52 PM 39.9200 -102.7364 69° East 562 647 35,000  Level Denver Center
Mon 04:21:54 PM 39.9769 -102.5525 68° East 563 648 35,000  Level Denver Center
Mon 04:22:55 PM 40.0406 -102.3425 68° East 559 643 35,000  Level Denver Center
Mon 04:23:57 PM 40.0933 -102.1625 69° East 555 639 35,000  Level Denver Center
Mon 04:24:59 PM 40.1556 -101.9531 69° East 554 638 35,000  Level Denver Center
Mon 04:26:00 PM 40.2097 -101.7742 68° East 555 639 35,000  Level Denver Center
Mon 04:27:02 PM 40.2622 -101.5928 69° East 557 641 35,000  Level Denver Center
Mon 04:28:04 PM 40.3231 -101.3814 69° East 556 640 35,000  Level Denver Center
Mon 04:29:05 PM 40.3753 -101.1994 69° East 559 643 35,000  Level Denver Center
Mon 04:30:07 PM 40.4375 -100.9858 69° East 564 649 35,000  Level Denver Center
Mon 04:31:09 PM 40.4758 -100.7972 75° East 565 650 35,000  Level Denver Center
Mon 04:32:10 PM 40.5119 -100.5736 78° East 568 654 35,000  Level Denver Center
Mon 04:33:12 PM 40.5447 -100.3814 77° East 570 656 35,000  Level Denver Center
Mon 04:34:14 PM 40.5811 -100.1547 78° East 571 657 35,000  Level Denver Center
Mon 04:35:16 PM 40.6122 -99.9600 78° East 571 657 35,000  Level Denver Center
Mon 04:36:17 PM 40.6442 -99.7639 78° East 571 657 35,000  Level Denver Center
Mon 04:37:19 PM 40.6825 -99.5200 78° East 572 658 35,000  Level Denver Center
Mon 04:38:20 PM 40.7081 -99.3583 78° East 569 655 35,000  Level Denver Center
Mon 04:39:28 PM 40.7467 -99.1006 79° East 565 650 35,000  Level Minneapolis Center
Mon 04:40:30 PM 40.7775 -98.8983 79° East 565 650 35,000  Level Minneapolis Center
Mon 04:41:31 PM 40.8061 -98.6947 79° East 564 649 35,000  Level Minneapolis Center
Mon 04:42:33 PM 40.8364 -98.4922 79° East 565 650 35,000  Level Minneapolis Center
Mon 04:43:35 PM 40.8683 -98.2725 79° East 564 649 35,000  Level Minneapolis Center
Mon 04:44:37 PM 40.8975 -98.0697 79° East 565 650 35,000  Level Minneapolis Center
Mon 04:45:39 PM 40.9267 -97.8664 79° East 566 651 35,000  Level Minneapolis Center
Mon 04:46:53 PM 40.9608 -97.6239 79° East 562 647 35,000  Level Minneapolis Center
Mon 04:47:55 PM 40.9942 -97.3792 80° East 563 648 35,000  Level Minneapolis Center
Mon 04:48:57 PM 41.0197 -97.1894 80° East 564 649 35,000  Level Minneapolis Center
Mon 04:49:59 PM 41.0467 -96.9850 80° East 565 650 35,000  Level Minneapolis Center
Mon 04:51:00 PM 41.0733 -96.7808 80° East 565 650 35,000  Level Minneapolis Center
Mon 04:52:02 PM 41.1047 -96.5350 80° East 565 650 35,000  Level Minneapolis Center
Mon 04:53:04 PM 41.1322 -96.3211 80° East 566 651 35,000  Level Minneapolis Center
Mon 04:54:06 PM 41.1550 -96.1067 82° East 564 649 35,000  Level Minneapolis Center
Mon 04:55:08 PM 41.1847 -95.9011 79° East 567 652 35,000  Level Minneapolis Center
Mon 04:56:10 PM 41.2089 -95.6956 81° East 564 649 35,000  Level Minneapolis Center
Mon 04:57:12 PM 41.2336 -95.4856 81° East 555 639 35,000  Level Minneapolis Center
Mon 04:58:13 PM 41.2581 -95.2839 81° East 555 639 35,000  Level Minneapolis Center
Mon 04:59:15 PM 41.2811 -95.0819 81° East 555 639 35,000  Level Minneapolis Center
Mon 05:00:17 PM 41.3033 -94.8789 82° East 555 639 35,000  Level Minneapolis Center
Mon 05:01:19 PM 41.3264 -94.6761 81° East 556 640 35,000  Level Minneapolis Center
Mon 05:02:21 PM 41.3522 -94.4328 82° East 556 640 35,000  Level Minneapolis Center
Mon 05:03:23 PM 41.3758 -94.2294 81° East 556 640 35,000  Level Minneapolis Center
Mon 05:04:25 PM 41.3933 -94.0544 82° East 555 639 35,000  Level Minneapolis Center
Mon 05:05:27 PM 41.4200 -93.8144 81° East 552 635 35,000  Level Minneapolis Center
Mon 05:06:29 PM 41.4394 -93.6131 83° East 550 633 35,000  Level Minneapolis Center
Mon 05:07:30 PM 41.4603 -93.4100 82° East 554 638 35,000  Level Minneapolis Center
Mon 05:08:32 PM 41.4783 -93.2072 83° East 554 638 35,000  Level Minneapolis Center
Mon 05:09:34 PM 41.4983 -93.0078 82° East 549 632 35,000  Level Minneapolis Center
Mon 05:10:36 PM 41.5169 -92.8061 83° East 549 632 35,000  Level Minneapolis Center
Mon 05:11:55 PM 41.5422 -92.5244 83° East 549 632 35,000  Level Chicago Center
Mon 05:12:57 PM 41.5594 -92.3242 83° East 549 632 35,000  Level Chicago Center
Mon 05:13:59 PM 41.5769 -92.1233 83° East 549 632 35,000  Level Chicago Center
Mon 05:15:01 PM 41.5975 -91.8847 83° East 548 631 35,000  Level Chicago Center
Mon 05:16:03 PM 41.6136 -91.6858 84° East 546 628 35,000  Level Chicago Center
Mon 05:17:05 PM 41.6286 -91.4883 84° East 544 626 35,000  Level Chicago Center
Mon 05:18:07 PM 41.6444 -91.2897 84° East 544 626 35,000  Level Chicago Center
Mon 05:19:09 PM 41.6631 -91.0522 84° East 543 625 35,000  Level Chicago Center
Mon 05:20:11 PM 41.6778 -90.8525 84° East 545 627 35,000  Level Chicago Center
Mon 05:21:13 PM 41.6919 -90.6558 84° East 542 624 35,000 435 Level Chicago Center
Mon 05:22:15 PM 41.7067 -90.4444 85° East 542 624 35,900 823 Climbing Chicago Center
Mon 05:23:17 PM 41.7219 -90.2419 84° East 544 626 36,700 532 Climbing Chicago Center
Mon 05:24:19 PM 41.7347 -90.0422 85° East 543 625 37,000 144 Climbing Chicago Center
Mon 05:25:22 PM 41.7483 -89.8367 85° East 552 635 37,000  Level Chicago Center
Mon 05:26:24 PM 41.7611 -89.6286 85° East 558 642 37,000  Level Chicago Center
Mon 05:27:26 PM 41.7781 -89.3725 85° East 561 646 37,000  Level Chicago Center
Mon 05:28:28 PM 41.7897 -89.1647 86° East 562 647 37,000  Level Chicago Center
Mon 05:29:30 PM 41.7994 -88.9608 86° East 554 638 37,000  Level Chicago Center
Mon 05:30:32 PM 41.8114 -88.7547 85° East 556 640 37,000  Level Chicago Center
Mon 05:31:34 PM 41.8222 -88.5486 86° East 554 638 37,000  Level Chicago Center
Mon 05:32:36 PM 41.8336 -88.3444 86° East 552 635 37,000  Level Chicago Center
Mon 05:33:38 PM 41.8458 -88.0947 86° East 556 640 37,000  Level Chicago Center
Mon 05:34:40 PM 41.8561 -87.8881 86° East 553 636 37,000  Level Chicago Center
Mon 05:35:42 PM 41.8658 -87.6839 86° East 549 632 37,000  Level Chicago Center
Mon 05:36:44 PM 41.8747 -87.4811 87° East 545 627 37,000  Level Chicago Center
Mon 05:37:46 PM 41.8831 -87.2772 87° East 546 628 37,000  Level Chicago Center
Mon 05:38:48 PM 41.8906 -87.0747 87° East 544 626 37,000  Level Chicago Center
Mon 05:39:50 PM 41.9000 -86.8722 86° East 544 626 37,000  Level Chicago Center
Mon 05:40:52 PM 41.9067 -86.6519 88° East 548 631 37,000  Level Chicago Center
Mon 05:41:54 PM 41.9147 -86.4503 87° East 543 625 37,000  Level Chicago Center
Mon 05:42:56 PM 41.9219 -86.2467 87° East 544 626 37,000  Level Chicago Center
Mon 05:43:58 PM 41.9300 -86.0044 87° East 542 624 37,000  Level Chicago Center
Mon 05:45:00 PM 41.9361 -85.8003 88° East 543 625 37,000  Level Chicago Center
Mon 05:46:03 PM 41.9422 -85.5953 88° East 544 626 37,000  Level Chicago Center
Mon 05:47:05 PM 41.9478 -85.3889 88° East 546 628 37,000  Level Chicago Center
Mon 05:47:39 PM 41.9544 -85.2550 86° East 533 613 37,000  Level Cleveland Center
Mon 05:48:39 PM 41.9542 -85.0539 90° East 538 619 37,000  Level Cleveland Center
Mon 05:49:39 PM 41.9514 -84.8525 91° East 538 619 37,000  Level Cleveland Center
Mon 05:50:39 PM 41.9503 -84.6542 90° East 538 619 37,000  Level Cleveland Center
Mon 05:51:39 PM 41.9489 -84.4558 90° East 538 619 37,000  Level Cleveland Center
Mon 05:52:39 PM 41.9475 -84.3022 91° East 532 612 37,000  Level Cleveland Center
Mon 05:53:39 PM 41.9419 -84.0839 92° East 532 612 37,000  Level Cleveland Center
Mon 05:54:39 PM 41.9372 -83.8911 92° East 527 606 37,000  Level Cleveland Center
Mon 05:55:39 PM 41.9364 -83.6956 90° East 521 600 37,000  Level Cleveland Center
Mon 05:56:39 PM 41.9339 -83.4806 91° East 521 600 37,000  Level Cleveland Center
Mon 05:57:39 PM 41.9344 -83.2853 90° East 516 594 37,000  Level Cleveland Center
Mon 05:58:39 PM 41.9306 -83.0867 91° East 522 601 37,000  Level Cleveland Center
Mon 05:59:39 PM 41.9303 -82.8969 90° East 522 601 37,000  Level Cleveland Center
Mon 06:00:39 PM 41.9278 -82.7014 91° East 517 595 37,000  Level Cleveland Center
Mon 06:01:39 PM 41.9250 -82.5033 91° East 517 595 37,000  Level Cleveland Center
Mon 06:02:39 PM 41.9242 -82.3078 90° East 517 595 37,000  Level Cleveland Center
Mon 06:03:39 PM 41.9242 -82.1544 90° East 517 595 37,000  Level Cleveland Center
Mon 06:04:39 PM 41.9186 -81.9281 92° East 517 595 37,000  Level Cleveland Center
Mon 06:05:39 PM 41.9083 -81.7328 94° East 517 595 37,000  Level Cleveland Center
Mon 06:06:39 PM 41.8914 -81.5456 97° East 517 595 37,000  Level Cleveland Center
Mon 06:07:39 PM 41.8761 -81.3528 96° East 522 601 37,000  Level Cleveland Center
Mon 06:08:39 PM 41.8564 -81.1631 98° East 522 601 37,000  Level Cleveland Center
Mon 06:09:39 PM 41.8406 -80.9706 96° East 522 601 37,000  Level Cleveland Center
Mon 06:10:39 PM 41.8222 -80.8006 98° East 522 601 37,000  Level Cleveland Center
Mon 06:11:39 PM 41.8036 -80.6111 97° East 516 594 37,000  Level Cleveland Center
Mon 06:12:39 PM 41.7847 -80.4217 98° East 521 600 37,000  Level Cleveland Center
Mon 06:13:39 PM 41.7656 -80.2325 98° East 521 600 37,000  Level Cleveland Center
Mon 06:14:39 PM 41.7461 -80.0433 98° East 516 594 37,000  Level Cleveland Center
Mon 06:15:39 PM 41.7242 -79.8375 98° East 516 594 37,000  Level Cleveland Center
Mon 06:16:39 PM 41.7061 -79.6458 97° East 516 594 37,000  Level Cleveland Center
Mon 06:17:39 PM 41.6858 -79.4794 99° East 505 581 37,000  Level Cleveland Center
Mon 06:18:39 PM 41.6672 -79.2906 97° East 505 581 37,000  Level Cleveland Center
Mon 06:19:39 PM 41.6461 -79.1022 98° East 505 581 37,000  Level Cleveland Center
Mon 06:20:39 PM 41.6228 -78.9136 99° East 505 581 37,000  Level Cleveland Center
Mon 06:21:39 PM 41.6031 -78.7256 98° East 505 581 37,000  Level Cleveland Center
Mon 06:22:39 PM 41.5811 -78.5372 99° East 505 581 37,000  Level Cleveland Center
Mon 06:23:39 PM 41.5589 -78.3464 99° East 505 581 37,000 -200 Level Cleveland Center
Mon 06:24:39 PM 41.5342 -78.1586 100° East 510 587 36,600 -710 Descending Cleveland Center
Mon 06:25:12 PM 41.5214 -78.0475 99° East 502 578 35,900 -1,319 Descending New York Center
Mon 06:26:10 PM 41.4950 -77.8617 101° East 508 585 34,600 -1,525 Descending New York Center
Mon 06:27:10 PM 41.4708 -77.6736 100° East 513 590 32,900 -1,623 Descending New York Center
Mon 06:28:12 PM 41.4444 -77.4797 100° East 519 597 31,300 -934 Descending New York Center
Mon 06:29:12 PM 41.4147 -77.2997 102° East 513 590 31,000 -353 Descending New York Center
Mon 06:30:11 PM 41.3853 -77.1117 102° East 513 590 30,600 -1,412 Descending New York Center
Mon 06:31:11 PM 41.3597 -76.9294 101° East 513 590 28,200 -2,281 Descending New York Center
Mon 06:32:12 PM 41.3292 -76.7497 103° East 513 590 26,000 -2,132 Descending New York Center
Mon 06:33:12 PM 41.2853 -76.5831 109° East 493 567 23,900 -2,050 Descending New York Center
Mon 06:34:12 PM 41.2411 -76.4247 110° East 475 547 21,900 -1,932 Descending New York Center
Mon 06:35:10 PM 41.2003 -76.2722 110° East 455 524 20,100 -1,765 Descending New York Center
Mon 06:36:11 PM 41.1611 -76.1231 109° East 428 493 18,400 -1,537 Descending New York Center
Mon 06:37:11 PM 41.1292 -75.9992 109° East 408 470 17,000 -1,488 Descending New York Center
Mon 06:38:12 PM 41.0917 -75.8586 109° East 402 463 15,400 -1,736 Descending New York Center
Mon 06:39:12 PM 41.0517 -75.7181 111° Southeast 383 441 13,500 -1,271 Descending New York Center
Mon 06:40:10 PM 41.0153 -75.5917 111° Southeast 371 427 12,900 -610 Descending New York Center
Mon 06:41:10 PM 40.9828 -75.4711 110° East 359 413 12,300 -942 Descending New York Center
Mon 06:42:11 PM 40.9497 -75.3564 111° Southeast 338 389 11,000 -1,091 Descending New York Center
Mon 06:43:11 PM 40.9225 -75.2528 109° East 317 365 10,100 -942 Descending New York Center
Mon 06:44:12 PM 40.8928 -75.1547 112° Southeast 295 339 9,100 -1,160 Descending New York Center
Mon 06:45:10 PM 40.8686 -75.0708 111° Southeast 283 326 7,800 -1,059 Descending New York Center
Mon 06:46:11 PM 40.8428 -74.9789 110° East 276 318 7,000 -893 Descending New York Center
Mon 06:47:11 PM 40.7894 -74.8961 130° Southeast 271 312 6,000 -496 Descending New York Center
Mon 06:48:12 PM 40.7419 -74.8247 131° Southeast 266 306 6,000  Level New York Center
Mon 06:49:12 PM 40.7200 -74.7358 108° East 250 288 6,000  Level New York Center
Mon 06:50:10 PM 40.7064 -74.6447 101° East 250 288 6,000  Level New York Center
Mon 06:50:56 PM 40.7333 -74.6000 52° Northeast 278 320 6,000  Level New York TRACON
Mon 06:51:56 PM 40.8167 -74.5833 North 263 303 6,000 -500 Level New York TRACON
Mon 06:52:56 PM 40.8833 -74.5500 21° North 263 303 5,000 -779 Descending New York TRACON
Mon 06:53:13 PM 40.8892 -74.5314 67° East 247 284 5,000  Level New York Center
Mon 06:54:10 PM 40.9369 -74.4764 41° Northeast 252 290 5,000  Level New York Center
Mon 06:55:11 PM 40.9589 -74.3733 74° East 254 292 5,000  Level New York Center
Mon 06:56:01 PM 40.9500 -74.3000 99° East 264 304 5,000 -382 Level New York TRACON
Mon 06:57:01 PM 40.9167 -74.2167 118° Southeast 255 293 4,300 -500 Descending New York TRACON
Mon 06:58:01 PM 40.8833 -74.1500 123° Southeast 212 244 4,000 -450 Descending New York TRACON
Mon 06:59:01 PM 40.8667 -74.0833 108° East 182 209 3,400 -574 Descending New York TRACON
Mon 06:59:56 PM 40.8167 -74.0833 180° South 170 196 2,900 -545 Descending New York TRACON

Login

Don't have an account? Register now (free) for customized features, flight alerts, and more!